x

South Moresby (46147) Wave Buoy

1:00pm - Tue 1st Sep 2015 All times are PDT. -7 hours from GMT.

  • Sig Wave height 12.8ft
  • Peak Period 11s
  • Wind
    13mph, 18mph gusts
  • Sea Temp 53°f
  • Air Temp 53°f
  • Sea Pressure 999.2mb
  • South Moresby
  • South Moresby

More Historic Weather Station data

Upgrade to MSW Pro to gain access to the past 30 days of data for over 8000 Wavebouys and Weather Stations around the globe.

Join Pro

Comparision Forecast

View Surf forecast
   
Tue 09/01 1:00pm 13ft 11s 13 18 mph 999.2mb 53f 53f
12:00pm 15ft 10s 18 22 mph 999.1mb 53f 55f
11:00am 14.5ft 11s 18 27 mph 999mb 53f 54f
10:00am 14.5ft 10s 13 18 mph 999.2mb 53f 54f
9:00am 14.5ft 8s 16 22 mph 999.1mb 54f 52f
8:00am 13ft 11s 25 31 mph 998.7mb 58f 54f
7:00am 12ft 12s 22 29 mph 998.2mb 59f 55f
6:00am 13ft 12s 18 22 mph 998.8mb 58f 54f
5:00am 12.5ft 11s 11 16 mph 999.8mb 57f 54f
4:00am 14ft 12s 25 36 mph 1000.7mb 57f 53f
3:00am 14ft 12s 9 13 mph 1001.3mb 58f 55f
2:00am 13ft 12s 20 31 mph 1002.2mb 52f 52f
1:00am 14ft 12s 13 18 mph 1002.6mb 52f 55f
12:00am 14ft 12s 9 13 mph 1003.4mb 52f 55f
Mon 08/31 11:00pm 13.5ft 11s 13 18 mph 1004mb 52f 54f
10:00pm 14ft 12s 9 16 mph 1004.3mb 53f 56f
9:00pm 13ft 12s 13 18 mph 1004.1mb 57f 57f
8:00pm 13ft 11s 18 22 mph 1003.9mb 59f 57f
7:00pm 14ft 11s 16 20 mph 1004mb 60f 57f
6:00pm 14ft 11s 11 16 mph 1004.2mb 58f 57f
5:00pm 12ft 11s 9 11 mph 1004.2mb 56f 56f
3:00pm 13.5ft 11s 9 11 mph 1005mb 55f 56f
2:00pm 12.5ft 12s 4 9 mph 1005mb 55f 56f
1:00pm 14ft 12s 4 9 mph 1005.2mb 54f 54f
12:00pm 13.5ft 11s 9 13 mph 1005.3mb 54f 55f
11:00am 14ft 10s 4 7 mph 1005mb 51f 56f
10:00am 15.5ft 11s 2 7 mph 1005.1mb 53f 55f
9:00am 14.5ft 11s 4 7 mph 1004.8mb 53f 55f
8:00am 13.5ft 10s 11 18 mph 1004.7mb 54f 56f
7:00am 13.5ft 11s 9 16 mph 1004.5mb 58f 58f
6:00am 14ft 10s 11 13 mph 1004.3mb 57f 56f
5:00am 14ft 10s 25 34 mph 1003.7mb 56f 57f
4:00am 14ft 10s 13 18 mph 1003.5mb 57f 58f
3:00am 13.5ft 10s 16 20 mph 1003.3mb 57f 58f
2:00am 12ft 10s 13 16 mph 1003.1mb 58f 58f
1:00am 11.5ft 10s 13 18 mph 1002.9mb 57f 58f
12:00am 11.5ft 10s 16 22 mph 1002.4mb 57f 59f
Sun 08/30 11:00pm 11ft 8s 16 20 mph 1001.8mb 57f 58f
10:00pm 11ft 8s 13 16 mph 1001.4mb 56f 58f
9:00pm 11ft 9s 16 20 mph 1000.5mb 56f 58f
8:00pm 11ft 9s 13 18 mph 999.6mb 56f 58f
7:00pm 11ft 8s 18 22 mph 998.7mb 56f 59f
6:00pm 11.5ft 9s 22 27 mph 997.5mb 56f 59f
5:00pm 13ft 8s 18 22 mph 996.8mb 57f 59f
4:00pm 14ft 10s 22 27 mph 996.1mb 56f 59f
3:00pm 15ft 11s 22 31 mph 995.5mb 56f 57f
2:00pm 15.5ft 9s 20 27 mph 995.1mb 56f 58f
1:00pm 13ft 11s 22 27 mph 995mb 55f 58f
12:00pm 12.5ft 11s 27 36 mph 995.6mb 54f 56f
11:00am 12ft 10s 29 36 mph 996.6mb 53f 56f
10:00am 11ft 10s 25 29 mph 997.8mb 55f 57f
9:00am 12ft 11s 22 27 mph 998.2mb 56f 59f
8:00am 9.5ft 11s 16 25 mph 999mb 56f 59f
7:00am 10ft 11s 11 16 mph 999.2mb 58f 58f
6:00am 9.5ft 10s 13 18 mph 999.2mb 57f 59f
5:00am 9ft 11s 16 18 mph 999.1mb 57f 59f
4:00am 10ft 11s 9 16 mph 999mb 58f 58f
3:00am 9ft 11s 11 13 mph 998.5mb 58f 59f
2:00am 10ft 12s 13 18 mph 998.1mb 58f 59f
1:00am 10ft 12s 13 18 mph 997.5mb 59f 58f
12:00am 10ft 12s 13 16 mph 996.9mb 59f 59f
Sat 08/29 11:00pm 10ft 11s 11 13 mph 996.6mb 59f 59f
10:00pm 11ft 12s 11 13 mph 996.2mb 60f 59f
9:00pm 11ft 11s 11 16 mph 995.6mb 59f 60f
8:00pm 10ft 11s 13 18 mph 994.8mb 59f 60f
7:00pm 11ft 12s 9 13 mph 994mb 59f 60f
6:00pm 11ft 12s 7 11 mph 993.3mb 59f 60f
5:00pm 10ft 12s 7 9 mph 992.7mb 58f 59f
4:00pm 12ft 12s 9 11 mph 991.9mb 56f 59f
3:00pm 11ft 12s 9 13 mph 990.9mb 58f 58f
2:00pm 10.5ft 12s 4 7 mph 990.2mb 57f 57f
1:00pm 12ft 12s 7 9 mph 989.8mb 57f 56f
12:00pm 12ft 13s 9 11 mph 989.9mb 56f 56f
11:00am 13ft 10s 9 13 mph 989.9mb 57f 56f
10:00am 12.5ft 8s 2 4 mph 990.4mb 59f 56f
9:00am 11.5ft 8s 7 9 mph 991.1mb 57f 55f
8:00am 11ft 8s 4 7 mph 991.7mb 57f 57f
7:00am 9ft 7s 2 4 mph 992.4mb 58f 57f
6:00am 9.5ft 8s 2 4 mph 993.2mb 58f 57f
5:00am 10.5ft 8s 7 9 mph 993.8mb 58f 58f
4:00am 9.5ft 8s 11 16 mph 994.1mb 57f 58f
3:00am 8ft 8s 13 18 mph 995.2mb 57f 58f
2:00am 8ft 8s 13 18 mph 996mb 57f 57f
1:00am 8.5ft 8s 16 18 mph 997mb 57f 58f
12:00am 9.5ft 8s 13 18 mph 997.7mb 57f 58f
Fri 08/28 11:00pm 10ft 8s 18 20 mph 998.3mb 58f 59f
10:00pm 11ft 8s 22 27 mph 998.7mb 57f 60f